Chibougamau Airport (YMT/CYMT)

Map

Destinations

Information

Location
Chibougamau, Quebec, Canada
Local Time
17:34 / 5:34 pm
GMT Time
22:34 / 10:34 pm
Gates
Unassigned
No FAA reported delays
METAR CYMT 242200Z AUTO 06004KT 010V100 9SM CLR 21/03 A3005 RMK SLP182 DENSITY ALT 2100FT
TAF TAF CYMT 241738Z 2418/2424 06005KT P6SM SKC RMK FCST BASED ON AUTO OBS. NXT FCST WILL BE ISSUED AT 251145Z